createdAt,value
2022-09-07T00:02:17.185Z,101364.75
2022-09-07T00:04:43.773Z,101355.41
2022-09-07T00:07:10.365Z,101347.06
2022-09-07T00:09:36.928Z,101336.25
2022-09-07T00:12:03.617Z,101321.81
2022-09-07T00:14:30.144Z,101328.09
2022-09-07T00:16:56.661Z,101323.19
2022-09-07T00:19:23.182Z,101330.44
2022-09-07T00:21:49.750Z,101335.50
2022-09-07T00:24:16.272Z,101331.91
2022-09-07T00:26:42.801Z,101328.44
2022-09-07T00:29:09.342Z,101321.28
2022-09-07T00:31:35.884Z,101312.47
2022-09-07T00:34:02.917Z,101323.28
2022-09-07T00:36:29.949Z,101321.00
2022-09-07T00:38:56.564Z,101330.41
2022-09-07T00:41:23.606Z,101319.97
2022-09-07T00:43:55.797Z,101313.78
2022-09-07T00:46:32.123Z,101314.22
2022-09-07T00:49:13.103Z,101309.78
2022-09-07T00:51:46.058Z,101308.56
2022-09-07T00:54:19.171Z,101311.78
2022-09-07T00:56:48.215Z,101310.22
2022-09-07T00:59:19.678Z,101306.72
2022-09-07T01:01:46.372Z,101309.88
2022-09-07T01:04:14.196Z,101310.75
2022-09-07T01:06:43.374Z,101309.56
2022-09-07T01:09:13.059Z,101315.84
2022-09-07T01:11:40.180Z,101322.91
2022-09-07T01:14:10.579Z,101324.66
2022-09-07T01:16:54.444Z,101334.09
2022-09-07T01:19:26.774Z,101342.53
2022-09-07T01:22:24.586Z,101355.75
2022-09-07T01:24:57.086Z,101355.03
2022-09-07T01:28:02.633Z,101365.03
2022-09-07T01:30:34.771Z,101379.13
2022-09-07T01:33:39.027Z,101372.28
2022-09-07T01:36:05.427Z,101376.84
2022-09-07T01:38:41.548Z,101376.50
2022-09-07T01:41:21.314Z,101381.75
2022-09-07T01:44:00.699Z,101372.63
2022-09-07T01:46:30.339Z,101374.72
2022-09-07T01:49:05.712Z,101368.66
2022-09-07T01:51:37.282Z,101346.09
2022-09-07T01:54:37.188Z,101326.19
2022-09-07T01:57:12.723Z,101297.88
2022-09-07T02:00:04.382Z,101282.44
2022-09-07T02:02:38.046Z,101280.34
2022-09-07T02:05:13.560Z,101287.13
2022-09-07T02:07:49.723Z,101287.06
2022-09-07T02:10:29.950Z,101287.81
2022-09-07T02:13:10.685Z,101276.41
2022-09-07T02:15:52.319Z,101267.25
2022-09-07T02:18:21.847Z,101257.25
2022-09-07T02:20:54.153Z,101257.78
2022-09-07T02:23:26.902Z,101265.41
2022-09-07T02:26:02.830Z,101258.22
2022-09-07T02:28:32.722Z,101251.94
2022-09-07T02:31:00.230Z,101262.28
2022-09-07T02:33:28.270Z,101273.28
2022-09-07T02:35:55.165Z,101267.72
2022-09-07T02:38:22.228Z,101262.47
2022-09-07T02:40:56.127Z,101264.91
2022-09-07T02:43:24.968Z,101260.47
2022-09-07T02:46:14.761Z,101260.13
2022-09-07T02:49:16.751Z,101261.06
2022-09-07T02:52:16.595Z,101256.13
2022-09-07T02:54:53.044Z,101251.75
2022-09-07T02:57:51.392Z,101244.44
2022-09-07T03:00:26.329Z,101260.38
2022-09-07T03:03:04.993Z,101264.75
2022-09-07T03:05:52.993Z,101269.09
2022-09-07T03:08:26.024Z,101266.47
2022-09-07T03:10:54.176Z,101264.44
2022-09-07T03:13:26.857Z,101263.59
2022-09-07T03:15:55.965Z,101257.25
2022-09-07T03:18:27.810Z,101249.59
2022-09-07T03:20:55.050Z,101255.22
2022-09-07T03:23:21.720Z,101259.94
2022-09-07T03:25:51.494Z,101260.06
2022-09-07T03:28:17.989Z,101255.31
2022-09-07T03:30:47.209Z,101264.91
2022-09-07T03:33:17.755Z,101269.88
2022-09-07T03:35:45.565Z,101260.66
2022-09-07T03:38:12.630Z,101269.63
2022-09-07T03:40:39.081Z,101272.16
2022-09-07T03:43:05.662Z,101275.31
2022-09-07T03:45:32.148Z,101261.44
2022-09-07T03:47:58.892Z,101253.22
2022-09-07T03:50:25.465Z,101248.47
2022-09-07T03:52:52.007Z,101236.78
2022-09-07T03:55:18.639Z,101212.38
2022-09-07T03:57:45.171Z,101205.44
2022-09-07T04:00:12.462Z,101202.41
2022-09-07T04:02:39.266Z,101195.88
2022-09-07T04:05:06.064Z,101204.94
2022-09-07T04:07:32.730Z,101218.69
2022-09-07T04:09:59.547Z,101216.34
2022-09-07T04:12:26.160Z,101221.69
2022-09-07T04:14:52.761Z,101214.88
2022-09-07T04:17:19.479Z,101214.03
2022-09-07T04:19:46.138Z,101215.84
2022-09-07T04:22:13.192Z,101227.19
2022-09-07T04:24:39.936Z,101233.19
2022-09-07T04:27:06.676Z,101234.97
2022-09-07T04:29:33.225Z,101236.25
2022-09-07T04:31:59.841Z,101239.22
2022-09-07T04:34:26.484Z,101225.97
2022-09-07T04:36:52.992Z,101233.00
2022-09-07T04:39:19.554Z,101227.00
2022-09-07T04:41:46.105Z,101233.41
2022-09-07T04:44:16.655Z,101231.13
2022-09-07T04:46:43.605Z,101232.91
2022-09-07T04:49:11.151Z,101238.91
2022-09-07T04:51:38.920Z,101234.09
2022-09-07T04:54:05.836Z,101230.00
2022-09-07T04:56:32.946Z,101231.47
2022-09-07T04:59:01.410Z,101237.44
2022-09-07T05:01:28.198Z,101238.63
2022-09-07T05:03:54.928Z,101239.56
2022-09-07T05:06:23.340Z,101234.31
2022-09-07T05:08:53.244Z,101233.44
2022-09-07T05:11:26.256Z,101228.41
2022-09-07T05:14:00.398Z,101233.16
2022-09-07T05:16:28.488Z,101232.91
2022-09-07T05:18:58.182Z,101229.34
2022-09-07T05:21:28.006Z,101224.94
2022-09-07T05:23:56.442Z,101238.91
2022-09-07T05:26:24.912Z,101229.47
2022-09-07T05:28:52.205Z,101233.97
2022-09-07T05:31:21.833Z,101222.00
2022-09-07T05:36:41.249Z,101212.22
2022-09-07T05:39:08.566Z,101216.22
2022-09-07T05:41:35.567Z,101220.09
2022-09-07T05:46:48.979Z,101217.16
2022-09-07T05:49:15.478Z,101228.41
2022-09-07T05:51:41.949Z,101227.44
2022-09-07T05:54:08.509Z,101220.50
2022-09-07T05:56:36.379Z,101230.28
2022-09-07T05:59:03.796Z,101219.69
2022-09-07T06:01:30.862Z,101223.13
2022-09-07T06:03:57.832Z,101229.34
2022-09-07T06:06:24.485Z,101234.81
2022-09-07T06:08:53.507Z,101235.13
2022-09-07T06:11:22.599Z,101251.75
2022-09-07T06:13:49.674Z,101255.94
2022-09-07T06:16:18.571Z,101260.47
2022-09-07T06:18:47.678Z,101250.69
2022-09-07T06:21:17.821Z,101250.81
2022-09-07T06:23:46.010Z,101259.72
2022-09-07T06:26:13.044Z,101258.38
2022-09-07T06:28:41.964Z,101260.59
2022-09-07T06:31:14.556Z,101264.78
2022-09-07T06:33:42.723Z,101262.78
2022-09-07T06:36:12.563Z,101268.66
2022-09-07T06:38:40.017Z,101265.19
2022-09-07T06:43:57.031Z,101278.78
2022-09-07T06:49:11.260Z,101266.13
2022-09-07T06:51:38.637Z,101263.91
2022-09-07T06:56:51.963Z,101257.97
2022-09-07T06:59:18.421Z,101256.81
2022-09-07T07:01:44.958Z,101265.63
2022-09-07T07:04:11.484Z,101258.63
2022-09-07T07:06:39.092Z,101262.56
2022-09-07T07:09:08.101Z,101276.75
2022-09-07T07:11:37.141Z,101286.03
2022-09-07T07:14:04.472Z,101280.53
2022-09-07T07:16:31.136Z,101269.44
2022-09-07T07:18:57.975Z,101280.94
2022-09-07T07:21:24.572Z,101279.22
2022-09-07T07:23:52.819Z,101283.53
2022-09-07T07:26:22.336Z,101279.72
2022-09-07T07:29:06.545Z,101281.31
2022-09-07T07:31:33.769Z,101288.59
2022-09-07T07:34:00.439Z,101293.88
2022-09-07T07:36:28.443Z,101289.88
2022-09-07T07:44:17.359Z,101310.28
2022-09-07T07:46:47.075Z,101301.34
2022-09-07T07:49:20.956Z,101305.94
2022-09-07T07:54:37.078Z,101307.09
2022-09-07T07:57:05.421Z,101312.75
2022-09-07T07:59:32.026Z,101313.94
2022-09-07T08:02:04.290Z,101310.88
2022-09-07T08:04:32.968Z,101313.16
2022-09-07T08:06:59.985Z,101316.06
2022-09-07T08:09:26.609Z,101313.78
2022-09-07T08:11:53.295Z,101316.06
2022-09-07T08:14:19.973Z,101316.06
2022-09-07T08:16:46.837Z,101327.84
2022-09-07T08:19:13.480Z,101328.22
2022-09-07T08:21:40.024Z,101332.66
2022-09-07T08:24:06.988Z,101331.69
2022-09-07T08:26:33.575Z,101332.41
2022-09-07T08:29:00.109Z,101339.50
2022-09-07T08:31:27.184Z,101337.06
2022-09-07T08:33:53.798Z,101336.84
2022-09-07T08:36:21.337Z,101333.59
2022-09-07T08:38:48.587Z,101327.97
2022-09-07T08:41:36.854Z,101321.47
2022-09-07T08:44:13.198Z,101327.19
2022-09-07T08:46:48.578Z,101321.81
2022-09-07T08:49:56.020Z,101335.94
2022-09-07T08:52:29.137Z,101342.06
2022-09-07T08:55:03.562Z,101335.22
2022-09-07T08:57:33.286Z,101339.78
2022-09-07T09:00:11.738Z,101340.72
2022-09-07T09:02:43.587Z,101337.22
2022-09-07T09:05:27.852Z,101343.19
2022-09-07T09:08:18.393Z,101344.69
2022-09-07T09:11:00.170Z,101347.28
2022-09-07T09:13:56.484Z,101341.56
2022-09-07T09:16:35.479Z,101340.88
2022-09-07T09:19:23.244Z,101338.34
2022-09-07T09:22:00.328Z,101334.78
2022-09-07T09:24:33.968Z,101336.97
2022-09-07T09:27:00.436Z,101336.41
2022-09-07T09:29:26.940Z,101339.47
2022-09-07T09:31:53.740Z,101334.78
2022-09-07T09:34:23.904Z,101334.00
2022-09-07T09:36:54.922Z,101338.91
2022-09-07T09:39:30.894Z,101328.28
2022-09-07T09:42:22.088Z,101326.97
2022-09-07T09:44:48.833Z,101326.38
2022-09-07T09:47:36.144Z,101338.66
2022-09-07T09:52:29.138Z,101339.81
2022-09-07T09:53:05.274Z,101333.47
2022-09-07T09:55:36.404Z,101331.88
2022-09-07T10:06:21.831Z,101329.94
2022-09-07T10:09:15.771Z,101322.22
2022-09-07T10:12:32.987Z,101327.59
2022-09-07T10:15:01.646Z,101315.75
2022-09-07T10:17:30.107Z,101316.34
2022-09-07T10:20:22.750Z,101314.03
2022-09-07T10:22:52.131Z,101321.00
2022-09-07T10:25:39.815Z,101322.66
2022-09-07T10:28:15.848Z,101323.41
2022-09-07T10:30:48.314Z,101316.41
2022-09-07T10:33:34.384Z,101319.34
2022-09-07T10:36:30.218Z,101323.00
2022-09-07T10:39:04.823Z,101318.25
2022-09-07T10:41:57.425Z,101325.06
2022-09-07T10:44:34.530Z,101315.31
2022-09-07T10:47:11.846Z,101313.47
2022-09-07T10:52:51.245Z,101313.03
2022-09-07T10:55:28.554Z,101311.19
2022-09-07T10:59:01.521Z,101308.44
2022-09-07T11:01:10.738Z,101306.34
2022-09-07T11:03:43.480Z,101311.53
2022-09-07T11:06:29.908Z,101306.66
2022-09-07T11:09:28.928Z,101313.66
2022-09-07T11:12:03.468Z,101296.88
2022-09-07T11:14:38.680Z,101305.97
2022-09-07T11:17:20.774Z,101306.09
2022-09-07T11:19:51.183Z,101302.03
2022-09-07T11:22:35.228Z,101296.69
2022-09-07T11:25:35.631Z,101304.00
2022-09-07T11:28:22.471Z,101295.09
2022-09-07T11:30:59.294Z,101296.84
2022-09-07T11:34:23.806Z,101304.84
2022-09-07T11:36:40.976Z,101296.44
2022-09-07T11:39:17.604Z,101303.50
2022-09-07T11:42:00.730Z,101298.88
2022-09-07T11:44:40.017Z,101299.41
2022-09-07T11:47:19.363Z,101300.16
2022-09-07T11:49:51.507Z,101300.88
2022-09-07T11:52:42.961Z,101296.91
2022-09-07T11:55:14.480Z,101293.69
2022-09-07T11:58:08.860Z,101292.28
2022-09-07T12:00:44.602Z,101295.53
2022-09-07T12:03:31.914Z,101298.50
2022-09-07T12:06:36.944Z,101300.63
2022-09-07T12:09:45.334Z,101299.41
2022-09-07T12:12:24.465Z,101289.91
2022-09-07T12:15:37.587Z,101289.63
2022-09-07T12:18:19.277Z,101285.91
2022-09-07T12:20:47.907Z,101280.75
2022-09-07T12:23:18.862Z,101287.00
2022-09-07T12:25:47.735Z,101285.56
2022-09-07T12:28:37.286Z,101278.88
2022-09-07T12:31:12.593Z,101278.50
2022-09-07T12:33:40.465Z,101280.72
2022-09-07T12:36:28.661Z,101275.31
2022-09-07T12:39:06.421Z,101272.16
2022-09-07T12:45:28.625Z,101275.81
2022-09-07T12:48:04.533Z,101271.16
2022-09-07T12:50:39.409Z,101269.50
2022-09-07T12:53:12.800Z,101264.03
2022-09-07T12:56:18.179Z,101257.22
2022-09-07T12:58:55.886Z,101259.72
2022-09-07T13:01:28.357Z,101260.94
2022-09-07T13:04:03.876Z,101251.88
2022-09-07T13:07:04.326Z,101250.06
2022-09-07T13:09:35.120Z,101249.22
2022-09-07T13:15:37.700Z,101236.13
2022-09-07T13:18:04.784Z,101238.16
2022-09-07T13:20:36.092Z,101238.16
2022-09-07T13:23:21.330Z,101232.19
2022-09-07T13:25:58.923Z,101239.72
2022-09-07T13:28:29.517Z,101226.66
2022-09-07T13:31:05.028Z,101229.38
2022-09-07T13:33:34.607Z,101222.44
2022-09-07T13:36:03.365Z,101218.78
2022-09-07T13:38:32.621Z,101212.75
2022-09-07T13:41:15.510Z,101221.16
2022-09-07T13:43:48.153Z,101215.22
2022-09-07T13:46:33.827Z,101215.78
2022-09-07T13:49:12.754Z,101210.81
2022-09-07T13:51:55.927Z,101213.25
2022-09-07T13:54:59.919Z,101208.31
2022-09-07T13:57:39.020Z,101219.66
2022-09-07T14:00:12.773Z,101213.16
2022-09-07T14:02:40.506Z,101213.31
2022-09-07T14:05:10.268Z,101206.59
2022-09-07T14:07:37.312Z,101215.03
2022-09-07T14:10:19.678Z,101212.34
2022-09-07T14:12:54.048Z,101219.00
2022-09-07T14:15:32.646Z,101209.16
2022-09-07T14:18:05.302Z,101208.63
2022-09-07T14:20:38.004Z,101205.66
2022-09-07T14:23:11.810Z,101208.16
2022-09-07T14:28:36.172Z,101211.66
2022-09-07T14:31:03.524Z,101210.16
2022-09-07T14:33:31.124Z,101208.84
2022-09-07T14:35:58.993Z,101197.00
2022-09-07T14:41:19.925Z,101193.78
2022-09-07T14:43:58.107Z,101199.81
2022-09-07T14:46:34.158Z,101198.91
2022-09-07T14:49:04.943Z,101192.31
2022-09-07T14:51:36.844Z,101194.34
2022-09-07T14:54:08.160Z,101204.00
2022-09-07T14:56:36.004Z,101204.09
2022-09-07T14:59:02.497Z,101205.88
2022-09-07T15:01:37.910Z,101193.56
2022-09-07T15:04:16.947Z,101195.22
2022-09-07T15:09:37.951Z,101188.13
2022-09-07T15:12:19.147Z,101190.75
2022-09-07T15:14:47.868Z,101182.25
2022-09-07T15:17:45.976Z,101186.75
2022-09-07T15:20:37.553Z,101181.25
2022-09-07T15:23:15.233Z,101182.06
2022-09-07T15:25:48.180Z,101177.38
2022-09-07T15:34:11.338Z,101171.53
2022-09-07T15:36:40.726Z,101167.69
2022-09-07T15:39:07.730Z,101172.31
2022-09-07T15:41:34.875Z,101168.00
2022-09-07T15:44:02.126Z,101168.34
2022-09-07T15:46:28.646Z,101174.78
2022-09-07T15:48:55.852Z,101170.63
2022-09-07T15:54:13.161Z,101170.66
2022-09-07T15:56:40.891Z,101172.50
2022-09-07T15:59:07.442Z,101178.16
2022-09-07T16:04:20.951Z,101171.34
2022-09-07T16:06:50.206Z,101170.00
2022-09-07T16:09:17.499Z,101171.00
2022-09-07T16:11:44.414Z,101170.78
2022-09-07T16:14:12.393Z,101169.44
2022-09-07T16:19:26.094Z,101157.28
2022-09-07T16:21:52.416Z,101156.94
2022-09-07T16:24:18.905Z,101166.53
2022-09-07T16:26:45.285Z,101161.16
2022-09-07T16:29:11.795Z,101157.50
2022-09-07T16:31:38.462Z,101157.34
2022-09-07T16:34:05.094Z,101156.19
2022-09-07T16:36:32.055Z,101153.25
2022-09-07T16:39:01.252Z,101155.53
2022-09-07T16:41:32.056Z,101154.69
2022-09-07T16:43:58.859Z,101148.84
2022-09-07T16:46:28.554Z,101148.31
2022-09-07T16:48:55.323Z,101145.00
2022-09-07T16:51:23.003Z,101142.09
2022-09-07T16:53:51.673Z,101136.09
2022-09-07T16:56:20.533Z,101137.91
2022-09-07T16:58:54.233Z,101142.88
2022-09-07T17:01:24.507Z,101143.03
2022-09-07T17:03:51.595Z,101149.16
2022-09-07T17:06:22.752Z,101145.00
2022-09-07T17:08:49.472Z,101150.25
2022-09-07T17:11:22.233Z,101148.28
2022-09-07T17:13:49.746Z,101150.94
2022-09-07T17:16:20.001Z,101140.91
2022-09-07T17:21:37.752Z,101135.53
2022-09-07T17:24:06.854Z,101144.97
2022-09-07T17:26:33.602Z,101145.81
2022-09-07T17:29:01.287Z,101143.47
2022-09-07T17:34:20.220Z,101139.13
2022-09-07T17:36:47.141Z,101144.44
2022-09-07T17:39:16.454Z,101141.25
2022-09-07T17:41:44.033Z,101141.72
2022-09-07T17:44:10.880Z,101142.03
2022-09-07T17:46:37.618Z,101141.63
2022-09-07T17:49:05.166Z,101139.97
2022-09-07T17:51:32.970Z,101139.59
2022-09-07T17:54:09.655Z,101140.91
2022-09-07T17:56:37.912Z,101134.34
2022-09-07T18:01:51.312Z,101128.56
2022-09-07T18:04:17.974Z,101134.03
2022-09-07T18:06:44.658Z,101135.31
2022-09-07T18:09:11.828Z,101138.41
2022-09-07T18:11:47.185Z,101131.50
2022-09-07T18:14:17.655Z,101128.84
2022-09-07T18:16:46.113Z,101133.59
2022-09-07T18:19:13.055Z,101130.41
2022-09-07T18:21:42.052Z,101133.50
2022-09-07T18:24:13.592Z,101130.03
2022-09-07T18:29:27.197Z,101114.00
2022-09-07T18:31:55.467Z,101129.09
2022-09-07T18:34:23.075Z,101128.53
2022-09-07T18:36:49.747Z,101120.91
2022-09-07T18:39:16.170Z,101127.03
2022-09-07T18:41:42.731Z,101125.22
2022-09-07T18:46:55.959Z,101123.13
2022-09-07T18:49:22.339Z,101124.13
2022-09-07T18:54:35.592Z,101128.75
2022-09-07T18:57:01.925Z,101128.06
2022-09-07T18:59:29.822Z,101135.28
2022-09-07T19:02:01.542Z,101129.75
2022-09-07T19:05:49.721Z,101126.41
2022-09-07T19:07:17.273Z,101121.53
2022-09-07T19:09:44.006Z,101123.78
2022-09-07T19:12:10.428Z,101118.47
2022-09-07T19:14:36.868Z,101118.78
2022-09-07T19:17:03.284Z,101113.63
2022-09-07T19:19:29.691Z,101112.53
2022-09-07T19:21:57.792Z,101109.72
2022-09-07T19:24:25.607Z,101111.84
2022-09-07T19:26:53.843Z,101117.16
2022-09-07T19:29:23.519Z,101112.13
2022-09-07T19:32:13.001Z,101116.72
2022-09-07T19:34:42.042Z,101125.69
2022-09-07T19:37:10.691Z,101124.03
2022-09-07T19:39:37.439Z,101122.09
2022-09-07T19:42:05.544Z,101126.00
2022-09-07T19:44:32.552Z,101123.63
2022-09-07T19:47:00.452Z,101130.75
2022-09-07T19:49:27.046Z,101130.06
2022-09-07T19:51:54.806Z,101126.03
2022-09-07T19:54:21.272Z,101127.28
2022-09-07T19:56:47.701Z,101124.72
2022-09-07T19:59:16.420Z,101128.06
2022-09-07T20:01:46.176Z,101118.47
2022-09-07T20:04:20.293Z,101116.53
2022-09-07T20:06:49.833Z,101109.84
2022-09-07T20:09:18.643Z,101101.50
2022-09-07T20:11:47.286Z,101103.31
2022-09-07T20:14:15.087Z,101098.84
2022-09-07T20:16:41.584Z,101095.38
2022-09-07T20:19:08.195Z,101101.50
2022-09-07T20:21:36.757Z,101093.13
2022-09-07T20:24:04.045Z,101100.78
2022-09-07T20:26:32.132Z,101097.16
2022-09-07T20:29:23.324Z,101101.75
2022-09-07T20:31:46.465Z,101085.34
2022-09-07T20:34:13.113Z,101082.13
2022-09-07T20:36:39.967Z,101083.50
2022-09-07T20:39:10.324Z,101076.28
2022-09-07T20:41:37.216Z,101075.44
2022-09-07T20:44:05.420Z,101071.81
2022-09-07T20:46:32.118Z,101075.44
2022-09-07T20:48:59.046Z,101063.44
2022-09-07T20:51:25.562Z,101062.91
2022-09-07T20:53:52.616Z,101065.28
2022-09-07T20:56:24.448Z,101072.22
2022-09-07T20:58:56.113Z,101072.50
2022-09-07T21:01:23.645Z,101072.50
2022-09-07T21:03:52.567Z,101065.63
2022-09-07T21:06:20.007Z,101073.97
2022-09-07T21:08:47.893Z,101066.59
2022-09-07T21:11:20.881Z,101070.47
2022-09-07T21:13:47.789Z,101074.81
2022-09-07T21:16:16.541Z,101071.16
2022-09-07T21:18:44.071Z,101072.69
2022-09-07T21:21:19.732Z,101078.41
2022-09-07T21:23:47.066Z,101073.78
2022-09-07T21:26:13.551Z,101071.41
2022-09-07T21:28:39.927Z,101067.94
2022-09-07T21:31:08.049Z,101065.97
2022-09-07T21:33:37.217Z,101063.19
2022-09-07T21:36:12.479Z,101063.75
2022-09-07T21:38:40.931Z,101053.03
2022-09-07T21:41:09.517Z,101058.72
2022-09-07T21:43:36.521Z,101049.81
2022-09-07T21:46:08.305Z,101054.41
2022-09-07T21:48:35.218Z,101048.56
2022-09-07T21:51:01.851Z,101046.72
2022-09-07T21:53:28.515Z,101038.25
2022-09-07T21:55:59.499Z,101034.91
2022-09-07T21:58:27.376Z,101029.75
2022-09-07T22:00:54.461Z,101033.78
2022-09-07T22:03:22.350Z,101031.56
2022-09-07T22:05:48.760Z,101031.72
2022-09-07T22:08:15.879Z,101024.03
2022-09-07T22:10:44.193Z,101031.03
2022-09-07T22:13:11.345Z,101033.66
2022-09-07T22:15:39.796Z,101035.19
2022-09-07T22:18:08.152Z,101040.88
2022-09-07T22:20:34.762Z,101031.44
2022-09-07T22:23:01.196Z,101028.34
2022-09-07T22:25:27.565Z,101026.25
2022-09-07T22:27:54.129Z,101023.16
2022-09-07T22:30:20.502Z,101018.75
2022-09-07T22:32:48.226Z,101016.09
2022-09-07T22:35:15.395Z,101024.84
2022-09-07T22:37:41.806Z,101017.06
2022-09-07T22:40:08.826Z,101013.16
2022-09-07T22:42:35.550Z,101012.47
2022-09-07T22:45:01.867Z,101021.41
2022-09-07T22:47:28.399Z,101014.16
2022-09-07T22:49:54.829Z,101021.41
2022-09-07T22:52:21.163Z,101017.88
2022-09-07T22:54:47.501Z,101016.22
2022-09-07T22:57:13.825Z,101010.81
2022-09-07T22:59:40.475Z,101003.03
2022-09-07T23:02:07.108Z,101003.72
2022-09-07T23:04:34.676Z,101002.03
2022-09-07T23:07:01.137Z,100999.28
2022-09-07T23:09:27.661Z,100995.50
2022-09-07T23:11:54.035Z,100985.59
2022-09-07T23:14:22.264Z,100980.91
2022-09-07T23:16:49.253Z,100976.72
2022-09-07T23:19:17.488Z,100975.63
2022-09-07T23:21:44.050Z,100980.78
2022-09-07T23:24:15.714Z,100976.72
2022-09-07T23:26:42.890Z,100970.47
2022-09-07T23:29:13.933Z,100967.69
2022-09-07T23:31:41.383Z,100968.66
2022-09-07T23:34:08.926Z,100968.81
2022-09-07T23:36:36.459Z,100963.91
2022-09-07T23:39:03.070Z,100954.41
2022-09-07T23:41:29.536Z,100961.50
2022-09-07T23:43:55.921Z,100944.84
2022-09-07T23:46:23.179Z,100953.72
2022-09-07T23:48:50.108Z,100945.94
2022-09-07T23:51:21.328Z,100947.72
2022-09-07T23:53:50.543Z,100938.28
2022-09-07T23:56:16.862Z,100943.56
2022-09-07T23:58:43.252Z,100943.69
